sensor_id;sensor_type;location;lat;lon;timestamp;P1;durP1;ratioP1;P2;durP2;ratioP2
5149;SDS011;2593;52.466;13.436;2023-03-13T00:01:37;20.93;;;7.60;;
5149;SDS011;2593;52.466;13.436;2023-03-13T00:04:05;21.37;;;9.23;;
5149;SDS011;2593;52.466;13.436;2023-03-13T00:06:32;16.13;;;8.27;;
5149;SDS011;2593;52.466;13.436;2023-03-13T00:08:59;21.70;;;10.17;;
5149;SDS011;2593;52.466;13.436;2023-03-13T00:11:25;36.33;;;11.43;;
5149;SDS011;2593;52.466;13.436;2023-03-13T00:13:54;25.37;;;7.80;;
5149;SDS011;2593;52.466;13.436;2023-03-13T00:16:22;19.53;;;9.10;;
5149;SDS011;2593;52.466;13.436;2023-03-13T00:18:48;30.43;;;9.37;;
5149;SDS011;2593;52.466;13.436;2023-03-13T00:21:16;22.30;;;7.93;;
5149;SDS011;2593;52.466;13.436;2023-03-13T00:23:44;13.83;;;8.30;;
5149;SDS011;2593;52.466;13.436;2023-03-13T00:26:11;30.47;;;9.07;;
5149;SDS011;2593;52.466;13.436;2023-03-13T00:28:38;20.97;;;8.57;;
5149;SDS011;2593;52.466;13.436;2023-03-13T00:31:09;28.20;;;8.73;;
5149;SDS011;2593;52.466;13.436;2023-03-13T00:33:43;27.27;;;9.30;;
5149;SDS011;2593;52.466;13.436;2023-03-13T00:36:15;18.83;;;9.00;;
5149;SDS011;2593;52.466;13.436;2023-03-13T00:38:43;39.40;;;8.47;;
5149;SDS011;2593;52.466;13.436;2023-03-13T00:41:13;23.83;;;9.33;;
5149;SDS011;2593;52.466;13.436;2023-03-13T00:43:43;24.33;;;8.67;;
5149;SDS011;2593;52.466;13.436;2023-03-13T00:46:10;22.53;;;9.27;;
5149;SDS011;2593;52.466;13.436;2023-03-13T00:48:37;28.70;;;8.60;;
5149;SDS011;2593;52.466;13.436;2023-03-13T00:51:03;27.33;;;8.93;;
5149;SDS011;2593;52.466;13.436;2023-03-13T00:53:29;27.77;;;9.33;;
5149;SDS011;2593;52.466;13.436;2023-03-13T00:56:02;22.50;;;9.93;;
5149;SDS011;2593;52.466;13.436;2023-03-13T00:58:32;17.10;;;8.57;;
5149;SDS011;2593;52.466;13.436;2023-03-13T01:01:06;22.07;;;9.80;;
5149;SDS011;2593;52.466;13.436;2023-03-13T01:03:45;25.70;;;9.37;;
5149;SDS011;2593;52.466;13.436;2023-03-13T01:06:14;18.40;;;8.67;;
5149;SDS011;2593;52.466;13.436;2023-03-13T01:08:41;13.53;;;8.93;;
5149;SDS011;2593;52.466;13.436;2023-03-13T01:11:16;24.10;;;10.00;;
5149;SDS011;2593;52.466;13.436;2023-03-13T01:13:44;15.73;;;8.73;;
5149;SDS011;2593;52.466;13.436;2023-03-13T01:16:11;17.00;;;8.60;;
5149;SDS011;2593;52.466;13.436;2023-03-13T01:18:39;25.47;;;9.60;;
5149;SDS011;2593;52.466;13.436;2023-03-13T01:21:06;17.07;;;7.90;;
5149;SDS011;2593;52.466;13.436;2023-03-13T01:23:32;27.67;;;8.67;;
5149;SDS011;2593;52.466;13.436;2023-03-13T01:25:58;30.37;;;9.60;;
5149;SDS011;2593;52.466;13.436;2023-03-13T01:28:24;22.90;;;9.07;;
5149;SDS011;2593;52.466;13.436;2023-03-13T01:30:51;19.17;;;9.10;;
5149;SDS011;2593;52.466;13.436;2023-03-13T01:33:17;23.00;;;9.13;;
5149;SDS011;2593;52.466;13.436;2023-03-13T01:35:43;17.17;;;9.07;;
5149;SDS011;2593;52.466;13.436;2023-03-13T01:38:09;14.83;;;8.73;;
5149;SDS011;2593;52.466;13.436;2023-03-13T01:40:42;15.07;;;7.83;;
5149;SDS011;2593;52.466;13.436;2023-03-13T01:43:17;21.20;;;7.87;;
5149;SDS011;2593;52.466;13.436;2023-03-13T01:48:25;23.40;;;9.80;;
5149;SDS011;2593;52.466;13.436;2023-03-13T01:51:02;22.43;;;8.40;;
5149;SDS011;2593;52.466;13.436;2023-03-13T01:53:32;24.27;;;9.03;;
5149;SDS011;2593;52.466;13.436;2023-03-13T01:55:59;20.60;;;8.40;;
5149;SDS011;2593;52.466;13.436;2023-03-13T01:58:27;18.90;;;8.40;;
5149;SDS011;2593;52.466;13.436;2023-03-13T02:00:54;27.60;;;10.77;;
5149;SDS011;2593;52.466;13.436;2023-03-13T02:03:20;17.93;;;9.43;;
5149;SDS011;2593;52.466;13.436;2023-03-13T02:05:47;24.80;;;9.60;;
5149;SDS011;2593;52.466;13.436;2023-03-13T02:08:16;22.33;;;10.80;;
5149;SDS011;2593;52.466;13.436;2023-03-13T02:10:49;21.80;;;9.10;;
5149;SDS011;2593;52.466;13.436;2023-03-13T02:13:17;38.97;;;11.47;;
5149;SDS011;2593;52.466;13.436;2023-03-13T02:15:44;27.87;;;10.40;;
5149;SDS011;2593;52.466;13.436;2023-03-13T02:18:11;17.30;;;9.93;;
5149;SDS011;2593;52.466;13.436;2023-03-13T02:20:37;24.33;;;9.23;;
5149;SDS011;2593;52.466;13.436;2023-03-13T02:23:13;18.30;;;9.33;;
5149;SDS011;2593;52.466;13.436;2023-03-13T02:25:59;22.83;;;10.77;;
5149;SDS011;2593;52.466;13.436;2023-03-13T02:28:35;24.33;;;9.70;;
5149;SDS011;2593;52.466;13.436;2023-03-13T02:31:03;17.53;;;9.10;;
5149;SDS011;2593;52.466;13.436;2023-03-13T02:33:31;22.80;;;9.97;;
5149;SDS011;2593;52.466;13.436;2023-03-13T02:36:01;17.50;;;8.33;;
5149;SDS011;2593;52.466;13.436;2023-03-13T02:38:28;15.07;;;10.13;;
5149;SDS011;2593;52.466;13.436;2023-03-13T02:40:55;24.27;;;8.87;;
5149;SDS011;2593;52.466;13.436;2023-03-13T02:43:34;19.27;;;8.90;;
5149;SDS011;2593;52.466;13.436;2023-03-13T02:46:18;19.10;;;9.33;;
5149;SDS011;2593;52.466;13.436;2023-03-13T02:48:52;15.43;;;8.87;;
5149;SDS011;2593;52.466;13.436;2023-03-13T02:54:01;31.30;;;9.20;;
5149;SDS011;2593;52.466;13.436;2023-03-13T02:56:30;12.70;;;6.90;;
5149;SDS011;2593;52.466;13.436;2023-03-13T02:59:00;19.87;;;8.30;;
5149;SDS011;2593;52.466;13.436;2023-03-13T03:01:25;29.07;;;8.33;;
5149;SDS011;2593;52.466;13.436;2023-03-13T03:03:51;32.63;;;8.90;;
5149;SDS011;2593;52.466;13.436;2023-03-13T03:06:17;14.60;;;7.87;;
5149;SDS011;2593;52.466;13.436;2023-03-13T03:08:43;14.30;;;7.83;;
5149;SDS011;2593;52.466;13.436;2023-03-13T03:11:09;18.37;;;8.03;;
5149;SDS011;2593;52.466;13.436;2023-03-13T03:13:35;13.77;;;6.50;;
5149;SDS011;2593;52.466;13.436;2023-03-13T03:16:05;22.20;;;7.23;;
5149;SDS011;2593;52.466;13.436;2023-03-13T03:18:36;19.40;;;6.33;;
5149;SDS011;2593;52.466;13.436;2023-03-13T03:21:02;9.30;;;6.20;;
5149;SDS011;2593;52.466;13.436;2023-03-13T03:23:31;10.97;;;5.90;;
5149;SDS011;2593;52.466;13.436;2023-03-13T03:25:57;17.03;;;5.60;;
5149;SDS011;2593;52.466;13.436;2023-03-13T03:28:23;10.87;;;5.97;;
5149;SDS011;2593;52.466;13.436;2023-03-13T03:30:49;11.93;;;4.40;;
5149;SDS011;2593;52.466;13.436;2023-03-13T03:33:17;12.57;;;5.43;;
5149;SDS011;2593;52.466;13.436;2023-03-13T03:35:43;22.97;;;6.37;;
5149;SDS011;2593;52.466;13.436;2023-03-13T03:38:08;26.83;;;5.27;;
5149;SDS011;2593;52.466;13.436;2023-03-13T03:40:34;15.13;;;6.10;;
5149;SDS011;2593;52.466;13.436;2023-03-13T03:42:59;16.03;;;4.27;;
5149;SDS011;2593;52.466;13.436;2023-03-13T03:45:25;19.00;;;5.13;;
5149;SDS011;2593;52.466;13.436;2023-03-13T03:47:51;9.17;;;4.43;;
5149;SDS011;2593;52.466;13.436;2023-03-13T03:50:17;14.97;;;4.63;;
5149;SDS011;2593;52.466;13.436;2023-03-13T03:52:42;28.67;;;5.60;;
5149;SDS011;2593;52.466;13.436;2023-03-13T03:55:08;15.70;;;4.00;;
5149;SDS011;2593;52.466;13.436;2023-03-13T03:57:34;18.30;;;4.10;;
5149;SDS011;2593;52.466;13.436;2023-03-13T04:00:00;19.90;;;6.43;;
5149;SDS011;2593;52.466;13.436;2023-03-13T04:02:25;19.83;;;4.33;;
5149;SDS011;2593;52.466;13.436;2023-03-13T04:04:51;16.60;;;4.23;;
5149;SDS011;2593;52.466;13.436;2023-03-13T04:07:17;13.50;;;4.50;;
5149;SDS011;2593;52.466;13.436;2023-03-13T04:09:42;17.67;;;4.93;;
5149;SDS011;2593;52.466;13.436;2023-03-13T04:12:08;11.80;;;4.13;;
5149;SDS011;2593;52.466;13.436;2023-03-13T04:14:34;17.93;;;5.10;;
5149;SDS011;2593;52.466;13.436;2023-03-13T04:16:59;27.20;;;4.90;;
5149;SDS011;2593;52.466;13.436;2023-03-13T04:19:25;16.03;;;4.13;;
5149;SDS011;2593;52.466;13.436;2023-03-13T04:21:50;17.13;;;3.83;;
5149;SDS011;2593;52.466;13.436;2023-03-13T04:24:16;23.97;;;4.43;;
5149;SDS011;2593;52.466;13.436;2023-03-13T04:26:42;17.43;;;4.77;;
5149;SDS011;2593;52.466;13.436;2023-03-13T04:29:07;13.03;;;3.63;;
5149;SDS011;2593;52.466;13.436;2023-03-13T04:31:33;32.80;;;4.70;;
5149;SDS011;2593;52.466;13.436;2023-03-13T04:33:58;21.10;;;4.67;;
5149;SDS011;2593;52.466;13.436;2023-03-13T04:36:24;22.80;;;5.20;;
5149;SDS011;2593;52.466;13.436;2023-03-13T04:38:49;22.67;;;5.20;;
5149;SDS011;2593;52.466;13.436;2023-03-13T04:41:15;20.10;;;5.23;;
5149;SDS011;2593;52.466;13.436;2023-03-13T04:43:41;28.13;;;5.67;;
5149;SDS011;2593;52.466;13.436;2023-03-13T04:46:06;19.30;;;4.33;;
5149;SDS011;2593;52.466;13.436;2023-03-13T04:48:32;28.20;;;4.30;;
5149;SDS011;2593;52.466;13.436;2023-03-13T04:50:57;20.83;;;3.80;;
5149;SDS011;2593;52.466;13.436;2023-03-13T04:53:23;16.20;;;4.43;;
5149;SDS011;2593;52.466;13.436;2023-03-13T04:55:49;12.93;;;4.43;;
5149;SDS011;2593;52.466;13.436;2023-03-13T04:58:15;14.37;;;4.13;;
5149;SDS011;2593;52.466;13.436;2023-03-13T05:00:41;23.30;;;3.97;;
5149;SDS011;2593;52.466;13.436;2023-03-13T05:03:07;27.00;;;5.20;;
5149;SDS011;2593;52.466;13.436;2023-03-13T05:05:33;23.40;;;4.43;;
5149;SDS011;2593;52.466;13.436;2023-03-13T05:07:59;20.17;;;4.80;;
5149;SDS011;2593;52.466;13.436;2023-03-13T05:10:25;16.10;;;3.83;;
5149;SDS011;2593;52.466;13.436;2023-03-13T05:12:50;15.83;;;4.40;;
5149;SDS011;2593;52.466;13.436;2023-03-13T05:15:16;14.13;;;4.37;;
5149;SDS011;2593;52.466;13.436;2023-03-13T05:17:42;25.37;;;5.33;;
5149;SDS011;2593;52.466;13.436;2023-03-13T05:20:08;20.60;;;5.47;;
5149;SDS011;2593;52.466;13.436;2023-03-13T05:22:35;25.30;;;4.50;;
5149;SDS011;2593;52.466;13.436;2023-03-13T05:25:01;13.50;;;3.90;;
5149;SDS011;2593;52.466;13.436;2023-03-13T05:27:28;26.23;;;4.50;;
5149;SDS011;2593;52.466;13.436;2023-03-13T05:29:53;20.60;;;5.37;;
5149;SDS011;2593;52.466;13.436;2023-03-13T05:32:19;15.83;;;4.17;;
5149;SDS011;2593;52.466;13.436;2023-03-13T05:34:44;23.23;;;4.97;;
5149;SDS011;2593;52.466;13.436;2023-03-13T05:37:10;24.47;;;4.77;;
5149;SDS011;2593;52.466;13.436;2023-03-13T05:39:35;24.13;;;5.07;;
5149;SDS011;2593;52.466;13.436;2023-03-13T05:42:01;39.03;;;6.33;;
5149;SDS011;2593;52.466;13.436;2023-03-13T05:44:27;23.83;;;5.50;;
5149;SDS011;2593;52.466;13.436;2023-03-13T05:46:52;22.60;;;4.90;;
5149;SDS011;2593;52.466;13.436;2023-03-13T05:49:18;21.07;;;5.20;;
5149;SDS011;2593;52.466;13.436;2023-03-13T05:51:44;23.50;;;4.70;;
5149;SDS011;2593;52.466;13.436;2023-03-13T05:54:09;10.90;;;3.70;;
5149;SDS011;2593;52.466;13.436;2023-03-13T05:56:35;24.77;;;5.13;;
5149;SDS011;2593;52.466;13.436;2023-03-13T05:59:01;11.53;;;4.00;;
5149;SDS011;2593;52.466;13.436;2023-03-13T06:01:26;22.97;;;6.10;;
5149;SDS011;2593;52.466;13.436;2023-03-13T06:03:52;21.23;;;4.53;;
5149;SDS011;2593;52.466;13.436;2023-03-13T06:06:18;14.23;;;4.50;;
5149;SDS011;2593;52.466;13.436;2023-03-13T06:08:44;31.83;;;5.50;;
5149;SDS011;2593;52.466;13.436;2023-03-13T06:11:09;22.00;;;4.00;;
5149;SDS011;2593;52.466;13.436;2023-03-13T06:13:35;19.23;;;3.97;;
5149;SDS011;2593;52.466;13.436;2023-03-13T06:16:01;17.70;;;4.27;;
5149;SDS011;2593;52.466;13.436;2023-03-13T06:18:26;20.00;;;4.53;;
5149;SDS011;2593;52.466;13.436;2023-03-13T06:20:56;17.67;;;5.33;;
5149;SDS011;2593;52.466;13.436;2023-03-13T06:23:23;25.57;;;6.37;;
5149;SDS011;2593;52.466;13.436;2023-03-13T06:25:49;31.33;;;6.60;;
5149;SDS011;2593;52.466;13.436;2023-03-13T06:28:15;21.63;;;4.43;;
5149;SDS011;2593;52.466;13.436;2023-03-13T06:30:41;26.10;;;5.47;;
5149;SDS011;2593;52.466;13.436;2023-03-13T06:33:06;20.03;;;5.00;;
5149;SDS011;2593;52.466;13.436;2023-03-13T06:35:32;22.20;;;5.43;;
5149;SDS011;2593;52.466;13.436;2023-03-13T06:37:58;19.23;;;4.57;;
5149;SDS011;2593;52.466;13.436;2023-03-13T06:40:24;24.27;;;5.47;;
5149;SDS011;2593;52.466;13.436;2023-03-13T06:42:49;27.30;;;4.70;;
5149;SDS011;2593;52.466;13.436;2023-03-13T06:45:15;15.03;;;4.70;;
5149;SDS011;2593;52.466;13.436;2023-03-13T06:47:41;22.03;;;4.87;;
5149;SDS011;2593;52.466;13.436;2023-03-13T06:50:07;19.93;;;4.80;;
5149;SDS011;2593;52.466;13.436;2023-03-13T06:52:33;25.17;;;5.33;;
5149;SDS011;2593;52.466;13.436;2023-03-13T06:54:59;28.33;;;5.07;;
5149;SDS011;2593;52.466;13.436;2023-03-13T06:57:25;34.47;;;9.33;;
5149;SDS011;2593;52.466;13.436;2023-03-13T06:59:50;17.97;;;5.70;;
5149;SDS011;2593;52.466;13.436;2023-03-13T07:02:16;26.70;;;5.43;;
5149;SDS011;2593;52.466;13.436;2023-03-13T07:04:42;26.93;;;4.97;;
5149;SDS011;2593;52.466;13.436;2023-03-13T07:07:07;34.03;;;6.90;;
5149;SDS011;2593;52.466;13.436;2023-03-13T07:09:33;27.40;;;5.27;;
5149;SDS011;2593;52.466;13.436;2023-03-13T07:11:59;23.80;;;5.30;;
5149;SDS011;2593;52.466;13.436;2023-03-13T07:14:24;26.87;;;4.60;;
5149;SDS011;2593;52.466;13.436;2023-03-13T07:16:50;20.03;;;5.07;;
5149;SDS011;2593;52.466;13.436;2023-03-13T07:19:16;25.97;;;5.60;;
5149;SDS011;2593;52.466;13.436;2023-03-13T07:21:42;35.80;;;6.03;;
5149;SDS011;2593;52.466;13.436;2023-03-13T07:24:08;25.87;;;5.13;;
5149;SDS011;2593;52.466;13.436;2023-03-13T07:26:33;29.63;;;5.50;;
5149;SDS011;2593;52.466;13.436;2023-03-13T07:28:59;21.43;;;4.47;;
5149;SDS011;2593;52.466;13.436;2023-03-13T07:31:25;18.70;;;4.30;;
5149;SDS011;2593;52.466;13.436;2023-03-13T07:33:52;27.80;;;4.60;;
5149;SDS011;2593;52.466;13.436;2023-03-13T07:36:20;16.90;;;5.57;;
5149;SDS011;2593;52.466;13.436;2023-03-13T07:38:47;26.77;;;5.90;;
5149;SDS011;2593;52.466;13.436;2023-03-13T07:41:13;34.57;;;5.90;;
5149;SDS011;2593;52.466;13.436;2023-03-13T07:43:39;23.10;;;5.90;;
5149;SDS011;2593;52.466;13.436;2023-03-13T07:46:06;23.50;;;4.47;;
5149;SDS011;2593;52.466;13.436;2023-03-13T07:48:34;25.73;;;5.90;;
5149;SDS011;2593;52.466;13.436;2023-03-13T07:51:01;30.00;;;5.40;;
5149;SDS011;2593;52.466;13.436;2023-03-13T07:53:27;20.30;;;4.87;;
5149;SDS011;2593;52.466;13.436;2023-03-13T07:58:24;24.90;;;5.50;;
5149;SDS011;2593;52.466;13.436;2023-03-13T08:00:52;31.87;;;4.50;;
5149;SDS011;2593;52.466;13.436;2023-03-13T08:03:18;28.13;;;4.60;;
5149;SDS011;2593;52.466;13.436;2023-03-13T08:05:44;33.13;;;4.63;;
5149;SDS011;2593;52.466;13.436;2023-03-13T08:08:09;26.73;;;5.73;;
5149;SDS011;2593;52.466;13.436;2023-03-13T08:10:35;28.73;;;4.87;;
5149;SDS011;2593;52.466;13.436;2023-03-13T08:13:01;19.47;;;4.70;;
5149;SDS011;2593;52.466;13.436;2023-03-13T08:15:27;25.10;;;3.77;;
5149;SDS011;2593;52.466;13.436;2023-03-13T08:17:53;28.07;;;4.23;;
5149;SDS011;2593;52.466;13.436;2023-03-13T08:20:19;19.33;;;4.43;;
5149;SDS011;2593;52.466;13.436;2023-03-13T08:22:45;28.13;;;5.53;;
5149;SDS011;2593;52.466;13.436;2023-03-13T08:25:11;32.40;;;5.80;;
5149;SDS011;2593;52.466;13.436;2023-03-13T08:27:37;30.80;;;5.23;;
5149;SDS011;2593;52.466;13.436;2023-03-13T08:30:03;21.97;;;4.53;;
5149;SDS011;2593;52.466;13.436;2023-03-13T08:32:33;17.50;;;4.67;;
5149;SDS011;2593;52.466;13.436;2023-03-13T08:34:59;23.83;;;4.50;;
5149;SDS011;2593;52.466;13.436;2023-03-13T08:37:25;32.73;;;4.17;;
5149;SDS011;2593;52.466;13.436;2023-03-13T08:39:50;21.47;;;6.60;;
5149;SDS011;2593;52.466;13.436;2023-03-13T08:42:18;12.40;;;3.60;;
5149;SDS011;2593;52.466;13.436;2023-03-13T08:44:43;11.53;;;4.73;;
5149;SDS011;2593;52.466;13.436;2023-03-13T08:47:09;14.37;;;4.43;;
5149;SDS011;2593;52.466;13.436;2023-03-13T08:49:35;9.70;;;3.00;;
5149;SDS011;2593;52.466;13.436;2023-03-13T08:52:02;13.73;;;3.40;;
5149;SDS011;2593;52.466;13.436;2023-03-13T08:54:29;19.67;;;4.43;;
5149;SDS011;2593;52.466;13.436;2023-03-13T08:56:55;22.33;;;4.80;;
5149;SDS011;2593;52.466;13.436;2023-03-13T08:59:20;21.07;;;3.27;;
5149;SDS011;2593;52.466;13.436;2023-03-13T09:01:46;19.43;;;4.10;;
5149;SDS011;2593;52.466;13.436;2023-03-13T09:04:12;22.53;;;4.27;;
5149;SDS011;2593;52.466;13.436;2023-03-13T09:06:38;19.83;;;4.43;;
5149;SDS011;2593;52.466;13.436;2023-03-13T09:09:04;26.00;;;5.30;;
5149;SDS011;2593;52.466;13.436;2023-03-13T09:11:31;17.30;;;5.53;;
5149;SDS011;2593;52.466;13.436;2023-03-13T09:13:57;21.37;;;3.93;;
5149;SDS011;2593;52.466;13.436;2023-03-13T09:16:24;13.03;;;3.77;;
5149;SDS011;2593;52.466;13.436;2023-03-13T09:18:52;17.20;;;4.40;;
5149;SDS011;2593;52.466;13.436;2023-03-13T09:21:19;25.87;;;4.73;;
5149;SDS011;2593;52.466;13.436;2023-03-13T09:23:46;20.30;;;4.73;;
5149;SDS011;2593;52.466;13.436;2023-03-13T09:26:12;22.50;;;4.00;;
5149;SDS011;2593;52.466;13.436;2023-03-13T09:28:38;25.07;;;3.93;;
5149;SDS011;2593;52.466;13.436;2023-03-13T09:31:10;8.77;;;3.80;;
5149;SDS011;2593;52.466;13.436;2023-03-13T09:33:37;19.53;;;3.80;;
5149;SDS011;2593;52.466;13.436;2023-03-13T09:36:03;14.77;;;3.87;;
5149;SDS011;2593;52.466;13.436;2023-03-13T09:38:29;18.03;;;4.00;;
5149;SDS011;2593;52.466;13.436;2023-03-13T09:40:59;16.90;;;3.90;;
5149;SDS011;2593;52.466;13.436;2023-03-13T09:46:30;23.10;;;3.93;;
5149;SDS011;2593;52.466;13.436;2023-03-13T09:49:02;9.97;;;3.07;;
5149;SDS011;2593;52.466;13.436;2023-03-13T09:51:35;20.80;;;3.97;;
5149;SDS011;2593;52.466;13.436;2023-03-13T09:56:51;20.07;;;3.80;;
5149;SDS011;2593;52.466;13.436;2023-03-13T09:59:23;11.30;;;3.33;;
5149;SDS011;2593;52.466;13.436;2023-03-13T10:01:54;7.90;;;3.13;;
5149;SDS011;2593;52.466;13.436;2023-03-13T10:06:53;21.70;;;4.50;;
5149;SDS011;2593;52.466;13.436;2023-03-13T10:09:29;13.23;;;2.93;;
5149;SDS011;2593;52.466;13.436;2023-03-13T10:14:29;12.27;;;3.17;;
5149;SDS011;2593;52.466;13.436;2023-03-13T10:19:34;8.50;;;3.07;;
5149;SDS011;2593;52.466;13.436;2023-03-13T10:22:08;8.60;;;2.80;;
5149;SDS011;2593;52.466;13.436;2023-03-13T10:24:57;10.97;;;3.10;;
5149;SDS011;2593;52.466;13.436;2023-03-13T10:27:26;8.83;;;3.70;;
5149;SDS011;2593;52.466;13.436;2023-03-13T10:29:52;10.77;;;3.20;;
5149;SDS011;2593;52.466;13.436;2023-03-13T10:32:18;6.60;;;2.50;;
5149;SDS011;2593;52.466;13.436;2023-03-13T10:34:49;21.80;;;4.30;;
5149;SDS011;2593;52.466;13.436;2023-03-13T10:39:52;12.87;;;3.00;;
5149;SDS011;2593;52.466;13.436;2023-03-13T10:42:26;11.27;;;2.63;;
5149;SDS011;2593;52.466;13.436;2023-03-13T10:44:58;13.23;;;2.60;;
5149;SDS011;2593;52.466;13.436;2023-03-13T10:47:25;8.77;;;2.17;;
5149;SDS011;2593;52.466;13.436;2023-03-13T10:49:54;10.00;;;2.60;;
5149;SDS011;2593;52.466;13.436;2023-03-13T10:55:17;6.03;;;2.33;;
5149;SDS011;2593;52.466;13.436;2023-03-13T10:57:56;7.17;;;2.23;;
5149;SDS011;2593;52.466;13.436;2023-03-13T11:00:27;9.03;;;3.80;;
5149;SDS011;2593;52.466;13.436;2023-03-13T11:03:46;8.10;;;3.20;;
5149;SDS011;2593;52.466;13.436;2023-03-13T11:05:58;6.07;;;2.00;;
5149;SDS011;2593;52.466;13.436;2023-03-13T11:08:35;4.80;;;1.63;;
5149;SDS011;2593;52.466;13.436;2023-03-13T11:11:05;2.70;;;1.57;;
5149;SDS011;2593;52.466;13.436;2023-03-13T11:13:42;7.57;;;1.77;;
5149;SDS011;2593;52.466;13.436;2023-03-13T11:24:32;5.30;;;1.83;;
5149;SDS011;2593;52.466;13.436;2023-03-13T11:32:55;2.63;;;1.57;;
5149;SDS011;2593;52.466;13.436;2023-03-13T11:35:32;3.37;;;1.53;;
5149;SDS011;2593;52.466;13.436;2023-03-13T11:38:00;7.23;;;1.43;;
5149;SDS011;2593;52.466;13.436;2023-03-13T11:40:40;3.10;;;1.33;;
5149;SDS011;2593;52.466;13.436;2023-03-13T11:46:21;3.20;;;1.43;;
5149;SDS011;2593;52.466;13.436;2023-03-13T11:52:23;2.77;;;1.00;;
5149;SDS011;2593;52.466;13.436;2023-03-13T11:55:06;2.23;;;1.03;;
5149;SDS011;2593;52.466;13.436;2023-03-13T12:00:39;3.63;;;1.50;;
5149;SDS011;2593;52.466;13.436;2023-03-13T12:05:51;2.10;;;1.27;;
5149;SDS011;2593;52.466;13.436;2023-03-13T12:08:20;3.93;;;1.27;;
5149;SDS011;2593;52.466;13.436;2023-03-13T12:11:15;1.10;;;0.93;;
5149;SDS011;2593;52.466;13.436;2023-03-13T12:19:23;1.80;;;1.03;;
5149;SDS011;2593;52.466;13.436;2023-03-13T12:22:16;3.70;;;1.40;;
5149;SDS011;2593;52.466;13.436;2023-03-13T12:24:59;2.47;;;0.97;;
5149;SDS011;2593;52.466;13.436;2023-03-13T12:27:43;4.17;;;1.47;;
5149;SDS011;2593;52.466;13.436;2023-03-13T12:33:02;1.57;;;0.93;;
5149;SDS011;2593;52.466;13.436;2023-03-13T12:35:38;1.77;;;1.40;;
5149;SDS011;2593;52.466;13.436;2023-03-13T12:38:16;2.50;;;1.13;;
5149;SDS011;2593;52.466;13.436;2023-03-13T12:43:52;5.53;;;1.13;;
5149;SDS011;2593;52.466;13.436;2023-03-13T12:46:27;0.97;;;0.87;;
5149;SDS011;2593;52.466;13.436;2023-03-13T12:54:20;1.80;;;0.80;;
5149;SDS011;2593;52.466;13.436;2023-03-13T12:59:40;2.43;;;1.30;;
5149;SDS011;2593;52.466;13.436;2023-03-13T13:02:14;1.43;;;1.13;;
5149;SDS011;2593;52.466;13.436;2023-03-13T13:04:46;2.87;;;1.13;;
5149;SDS011;2593;52.466;13.436;2023-03-13T13:07:25;3.23;;;1.33;;
5149;SDS011;2593;52.466;13.436;2023-03-13T13:12:34;1.30;;;1.20;;
5149;SDS011;2593;52.466;13.436;2023-03-13T13:15:14;3.37;;;1.10;;
5149;SDS011;2593;52.466;13.436;2023-03-13T13:20:26;1.77;;;1.50;;
5149;SDS011;2593;52.466;13.436;2023-03-13T13:23:20;1.73;;;1.10;;
5149;SDS011;2593;52.466;13.436;2023-03-13T13:25:50;2.80;;;0.93;;
5149;SDS011;2593;52.466;13.436;2023-03-13T13:30:46;2.07;;;1.30;;
5149;SDS011;2593;52.466;13.436;2023-03-13T13:35:45;3.77;;;1.90;;
5149;SDS011;2593;52.466;13.436;2023-03-13T13:41:03;3.30;;;1.30;;
5149;SDS011;2593;52.466;13.436;2023-03-13T13:43:47;5.00;;;1.57;;
5149;SDS011;2593;52.466;13.436;2023-03-13T13:49:05;1.47;;;0.97;;
5149;SDS011;2593;52.466;13.436;2023-03-13T13:51:42;2.23;;;1.40;;
5149;SDS011;2593;52.466;13.436;2023-03-13T13:54:31;2.10;;;1.20;;
5149;SDS011;2593;52.466;13.436;2023-03-13T13:57:07;3.03;;;1.07;;
5149;SDS011;2593;52.466;13.436;2023-03-13T13:59:44;1.77;;;1.10;;
5149;SDS011;2593;52.466;13.436;2023-03-13T14:02:23;1.50;;;1.20;;
5149;SDS011;2593;52.466;13.436;2023-03-13T14:04:58;2.43;;;1.23;;
5149;SDS011;2593;52.466;13.436;2023-03-13T14:12:39;4.37;;;2.20;;
5149;SDS011;2593;52.466;13.436;2023-03-13T14:15:05;8.87;;;2.00;;
5149;SDS011;2593;52.466;13.436;2023-03-13T14:17:49;1.37;;;1.27;;
5149;SDS011;2593;52.466;13.436;2023-03-13T14:20:26;3.10;;;1.70;;
5149;SDS011;2593;52.466;13.436;2023-03-13T14:23:01;1.13;;;1.03;;
5149;SDS011;2593;52.466;13.436;2023-03-13T14:28:22;8.43;;;2.13;;
5149;SDS011;2593;52.466;13.436;2023-03-13T14:30:53;5.07;;;1.20;;
5149;SDS011;2593;52.466;13.436;2023-03-13T14:33:20;4.10;;;1.47;;
5149;SDS011;2593;52.466;13.436;2023-03-13T14:35:46;2.17;;;1.70;;
5149;SDS011;2593;52.466;13.436;2023-03-13T14:38:19;1.70;;;1.27;;
5149;SDS011;2593;52.466;13.436;2023-03-13T14:40:47;2.77;;;1.40;;
5149;SDS011;2593;52.466;13.436;2023-03-13T14:45:56;3.73;;;1.77;;
5149;SDS011;2593;52.466;13.436;2023-03-13T14:48:30;2.00;;;1.13;;
5149;SDS011;2593;52.466;13.436;2023-03-13T14:51:02;6.03;;;1.73;;
5149;SDS011;2593;52.466;13.436;2023-03-13T14:53:33;4.10;;;1.33;;
5149;SDS011;2593;52.466;13.436;2023-03-13T14:56:12;3.90;;;1.63;;
5149;SDS011;2593;52.466;13.436;2023-03-13T14:58:40;5.13;;;2.00;;
5149;SDS011;2593;52.466;13.436;2023-03-13T15:01:25;1.30;;;1.20;;
5149;SDS011;2593;52.466;13.436;2023-03-13T15:03:54;3.27;;;1.53;;
5149;SDS011;2593;52.466;13.436;2023-03-13T15:06:21;2.60;;;1.53;;
5149;SDS011;2593;52.466;13.436;2023-03-13T15:08:49;3.80;;;1.70;;
5149;SDS011;2593;52.466;13.436;2023-03-13T15:11:50;3.83;;;1.80;;
5149;SDS011;2593;52.466;13.436;2023-03-13T15:17:13;5.03;;;2.10;;
5149;SDS011;2593;52.466;13.436;2023-03-13T15:19:54;3.33;;;2.87;;
5149;SDS011;2593;52.466;13.436;2023-03-13T15:22:28;2.93;;;1.50;;
5149;SDS011;2593;52.466;13.436;2023-03-13T15:24:56;4.03;;;1.47;;
5149;SDS011;2593;52.466;13.436;2023-03-13T15:27:23;1.53;;;1.17;;
5149;SDS011;2593;52.466;13.436;2023-03-13T15:29:50;1.40;;;1.30;;
5149;SDS011;2593;52.466;13.436;2023-03-13T15:32:24;3.70;;;2.30;;
5149;SDS011;2593;52.466;13.436;2023-03-13T15:34:52;5.90;;;3.40;;
5149;SDS011;2593;52.466;13.436;2023-03-13T15:37:22;4.40;;;1.87;;
5149;SDS011;2593;52.466;13.436;2023-03-13T15:39:57;3.33;;;1.90;;
5149;SDS011;2593;52.466;13.436;2023-03-13T15:42:23;5.43;;;3.40;;
5149;SDS011;2593;52.466;13.436;2023-03-13T15:44:48;8.23;;;2.43;;
5149;SDS011;2593;52.466;13.436;2023-03-13T15:47:16;3.00;;;2.33;;
5149;SDS011;2593;52.466;13.436;2023-03-13T15:49:44;8.63;;;2.20;;
5149;SDS011;2593;52.466;13.436;2023-03-13T15:52:14;2.83;;;2.63;;
5149;SDS011;2593;52.466;13.436;2023-03-13T15:54:43;1.73;;;1.23;;
5149;SDS011;2593;52.466;13.436;2023-03-13T15:57:11;8.57;;;1.60;;
5149;SDS011;2593;52.466;13.436;2023-03-13T15:59:41;8.10;;;1.83;;
5149;SDS011;2593;52.466;13.436;2023-03-13T16:02:15;5.90;;;1.83;;
5149;SDS011;2593;52.466;13.436;2023-03-13T16:04:43;15.23;;;3.70;;
5149;SDS011;2593;52.466;13.436;2023-03-13T16:07:13;3.40;;;1.83;;
5149;SDS011;2593;52.466;13.436;2023-03-13T16:09:43;5.83;;;3.80;;
5149;SDS011;2593;52.466;13.436;2023-03-13T16:12:09;4.30;;;1.70;;
5149;SDS011;2593;52.466;13.436;2023-03-13T16:14:36;9.50;;;1.70;;
5149;SDS011;2593;52.466;13.436;2023-03-13T16:17:05;1.40;;;1.30;;
5149;SDS011;2593;52.466;13.436;2023-03-13T16:19:39;2.10;;;1.30;;
5149;SDS011;2593;52.466;13.436;2023-03-13T16:22:05;5.80;;;1.90;;
5149;SDS011;2593;52.466;13.436;2023-03-13T16:24:31;8.43;;;1.90;;
5149;SDS011;2593;52.466;13.436;2023-03-13T16:26:57;3.80;;;1.87;;
5149;SDS011;2593;52.466;13.436;2023-03-13T16:29:22;11.03;;;2.47;;
5149;SDS011;2593;52.466;13.436;2023-03-13T16:31:49;2.73;;;2.00;;
5149;SDS011;2593;52.466;13.436;2023-03-13T16:34:15;4.53;;;1.50;;
5149;SDS011;2593;52.466;13.436;2023-03-13T16:36:40;3.57;;;1.70;;
5149;SDS011;2593;52.466;13.436;2023-03-13T16:39:07;2.80;;;1.40;;
5149;SDS011;2593;52.466;13.436;2023-03-13T16:41:37;2.37;;;2.20;;
5149;SDS011;2593;52.466;13.436;2023-03-13T16:44:03;7.17;;;2.00;;
5149;SDS011;2593;52.466;13.436;2023-03-13T16:46:31;6.60;;;1.67;;